Terminal Aerodrome Forecast
Issued by NWS Wilmington, OH

Current Version | Previous Version | Graphics & Text | Print | Product List | Glossary On
Versions: 1 2 3 4 5 6 7 8 9 10 11 12 13 14 15 16 17 18 19
000
FTUS41 KILN 241500 AAB
TAFDAY
TAF AMD
KDAY 241558Z 2416/2512 02012KT P6SM BKN035
     FM242100 02010KT P6SM SCT035
     FM242300 03006KT P6SM SKC
     FM250900 14003KT 5SM BR SKC=

USA.gov is the U.S. government's official web portal to all federal, state and local government web resources and services.